This is the latest recevied weather packets stored in our database for station/object VK3AGD-9. If no packets are shown the sender has not sent any weather packets the latest 10 day(s).
| Time | Temp. | Humidity | Pressure | Rain* | Wind** | Luminosity | Snow |
|---|---|---|---|---|---|---|---|
| 1787831140 | 9.44° C | 88% | - | 0 mm | - | - | - |
| 1787830276 | 8.89° C | 90% | - | 0 mm | - | - | - |
| 1787829412 | 8.33° C | 90% | - | 0 mm | - | - | - |
| 1787828452 | 8.89° C | 91% | - | 0 mm | - | - | - |
| 1787827588 | 8.89° C | 90% | - | 0 mm | - | - | - |
| 1787826724 | 8.89° C | 90% | - | 0 mm | - | - | - |
| 1787825764 | 8.89° C | 90% | - | 0 mm | - | - | - |
| 1787825093 | 9.44° C | 87% | - | 0 mm | - | - | - |
| 1787823940 | 9.44° C | 87% | - | 0 mm | - | - | - |
| 1787823172 | 9.44° C | 87% | - | 0 mm | - | - | - |
| 1787822212 | 9.44° C | 88% | - | 0 mm | - | - | - |
| 1787821252 | 10° C | 90% | - | 0 mm | - | - | - |
| 1787820389 | 9.44° C | 89% | - | 0 mm | - | - | - |
| 1787819428 | 9.44° C | 87% | - | 0 mm | - | - | - |
| 1787818564 | 10° C | 85% | - | 0 mm | - | - | - |
| 1787817700 | 10.56° C | 82% | - | 0 mm | - | - | - |
| 1787816740 | 11.11° C | 79% | - | 0 mm | - | - | - |
| 1787815876 | 11.67° C | 78% | - | 0 mm | - | - | - |
| 1787815012 | 12.22° C | 77% | - | 0 mm | - | - | - |
| 1787814052 | 12.78° C | 76% | - | 0 mm | - | - | - |
| 1787813189 | 12.78° C | 75% | - | 0 mm | - | - | - |
| 1787812228 | 13.33° C | 73% | - | 0 mm | - | - | - |
| 1787811364 | 14.44° C | 65% | - | 0 mm | - | - | - |
| 1787810500 | 15° C | 63% | - | 0 mm | - | - | - |
| 1787809540 | 15° C | 62% | - | 0 mm | - | - | - |
* Rain latest hour (hover to see other rain measurements)
** Current wind speed in m/s (hover to see current wind gust speed)